• Join FlightAware (Why Join?)
  • Login
  • US Flag GB Flag 
16:03 EST


 

Airport Tracker/Info


-or-


 

Live Flight TrackerFlight Track Log ✈ UCA596 ✈ 11-Sep-2013 ✈ KIAD - KBGM

Flight Track Log - Related Links

Times and Time Zones

All times are in EDT time to prevent confusion due to time zone crossing. See the UCA596 flight status page for this flight to view local times or setup timezone preferences in your user account.

Time Position Orientation Groundspeed Altitude Reporting Facility
EDT Latitude Longitude Course Direction KTS MPH feet Rate Location/Type
13:35 38.9667 -77.5167 North 175 201 2,200  Level Potomac TRACON
13:36 39.0000 -77.5667 311° West 192 221 3,800 1,620 Climbing Potomac TRACON
13:37 39.0753 -77.6425 322° Northwest 199 229 6,600 1,560 Climbing Washington Center
13:38 39.1231 -77.6464 356° North 185 213 8,100 1,500 Climbing Washington Center
13:39 39.1772 -77.6478 359° North 185 213 9,700 1,380 Climbing Washington Center
13:40 39.3754 -77.2741 North  Level Estimated
13:40 39.2336 -77.6389 North 185 213 10,900  Level Washington Center
13:41 39.2864 -77.6028 28° Northeast 191 220 12,800 1,680 Climbing Washington Center
13:42 39.3408 -77.5800 18° North 203 234 14,300 1,440 Climbing Washington Center
13:43 39.3933 -77.5572 19° North 203 234 15,700 1,080 Climbing Washington Center
13:44 39.4544 -77.5294 19° North 209 241 16,600 900 Climbing Washington Center
13:45 39.5131 -77.4986 22° Northeast 215 247 17,500 720 Climbing Washington Center
13:48 39.6653 -77.4219 21° North 241 277 19,000 420 Climbing New York Center
13:49 39.7297 -77.3903 21° North 246 283 19,000  Level New York Center
13:50 39.8069 -77.3514 21° North 262 302 19,000  Level New York Center
13:51 39.8753 -77.3228 18° North 276 318 19,000  Level New York Center
13:52 39.9561 -77.2925 16° North 276 318 19,000  Level New York Center
13:53 40.0203 -77.2631 19° North 276 318 19,000  Level New York Center
13:54 40.1039 -77.2219 21° North 276 318 19,000  Level New York Center
13:55 40.1683 -77.1872 22° Northeast 276 318 19,000  Level New York Center
13:56 40.2475 -77.1483 21° North 276 318 19,000  Level New York Center
13:57 40.3142 -77.1136 22° Northeast 276 318 19,000 -60 Level New York Center
13:58 40.3956 -77.0719 21° North 282 325 18,900 -300 Descending New York Center
13:59 40.4661 -77.0375 20° North 282 325 18,400 -720 Descending New York Center
14:00 40.5519 -76.9933 21° North 282 325 17,500 -900 Descending New York Center
14:01 40.6225 -76.9589 20° North 287 330 16,600 -1,080 Descending New York Center
14:02 40.7061 -76.9117 23° Northeast 292 336 15,400 -840 Descending New York Center
14:03 40.7747 -76.8767 21° North 292 336 15,000 -240 Descending New York Center
14:04 40.8561 -76.8344 21° North 292 336 15,000  Level New York Center
14:05 40.9311 -76.7944 22° Northeast 287 330 15,000 -300 Level New York Center
14:06 41.0039 -76.7569 21° North 281 323 14,400 -900 Descending New York Center
14:07 41.0828 -76.7169 21° North 281 323 13,200 -1,200 Descending New York Center
14:08 41.1644 -76.6719 23° Northeast 292 336 12,000 -1,140 Descending New York Center
14:09 41.2417 -76.6261 24° Northeast 300 345 11,000 -540 Descending New York Center
14:10 41.3164 -76.5883 21° North 295 339 11,000  Level New York Center
14:11 41.3897 -76.5781 North 281 323 11,000  Level New York Center
14:12 41.4561 -76.5839 356° North 272 313 11,000  Level New York Center
14:13 41.5328 -76.5933 355° North 272 313 11,000 -600 Level New York Center
14:14 41.6153 -76.6117 351° North 272 313 9,900 -1,020 Descending New York Center
14:15 41.6886 -76.6458 341° North 279 321 9,000 -480 Descending New York Center
14:16 41.7556 -76.6767 341° North 261 300 9,000  Level New York Center
14:17 41.8231 -76.7022 344° North 261 300 9,000 -1,020 Level New York Center
14:18 41.8831 -76.6686 23° Northeast 223 257 7,000 -2,040 Descending New York Center
14:19 41.9386 -76.6008 42° Northeast 235 270 5,000 -1,020 Descending New York Center
14:20 41.9797 -76.5236 54° Northeast 240 276 5,000  Level New York Center
14:21 42.0169 -76.4403 59° Northeast 245 282 5,000  Level New York Center
14:22 42.0564 -76.3600 56° Northeast 251 289 5,100  Climbing New York Center
14:23 42.0914 -76.2764 61° Northeast 251 289 5,000 -480 Descending New York Center
14:24 42.1239 -76.2064 58° Northeast 251 289 4,200 -960 Descending New York Center
14:25 42.1744 -76.1461 41° Northeast 245 282 3,100 -600 Descending New York Center
14:26 42.2203 -76.0994 37° Northeast 222 255 3,100 -240 Level New York Center
14:27 42.2458 -76.0369 61° Northeast 201 231 2,700 -540 Descending New York Center
14:28 42.2397 -75.9889 100° East 170 196 2,100 4,140 Descending New York Center
14:29 42.2461 -75.9392 80° East 170 196 11,000 4,440 Climbing New York Center
14:30 42.2542 -75.8922 77° East 170 196 11,000  Level New York Center
14:32 42.2000 -75.9667 North  Level FlightAware Approximate